Time;durP1;ratioP1;P1;durP2;ratioP2;P2;SDS_P1;SDS_P2;PMS_P1;PMS_P2;Temp;Humidity;BMP_temperature;BMP_pressure;BME280_temperature;BME280_humidity;BME280_pressure;Samples;Min_cycle;Max_cycle;Signal;HPM_P1;HPM_P2
2021/03/20 00:01:05;;;;;;;4.60;2.70;;;-0.50;75.70;;;;;;5064412;28;20446;-54
2021/03/20 00:03:31;;;;;;;6.57;2.55;;;-0.60;76.00;;;;;;5065600;28;20029;-55
2021/03/20 00:05:57;;;;;;;7.22;2.78;;;-0.60;76.30;;;;;;5062521;28;20024;-51
2021/03/20 00:08:24;;;;;;;8.25;3.70;;;-0.60;76.20;;;;;;5063706;28;20044;-55
2021/03/20 00:10:50;;;;;;;6.95;3.45;;;-0.70;76.60;;;;;;5060534;28;20451;-57
2021/03/20 00:13:18;;;;;;;10.88;3.83;;;-0.60;76.40;;;;;;5062381;28;20048;-52
2021/03/20 00:15:44;;;;;;;4.63;2.58;;;-0.70;76.50;;;;;;5063759;28;20044;-55
2021/03/20 00:18:11;;;;;;;3.75;2.53;;;-0.70;76.40;;;;;;5027272;28;20044;-56
2021/03/20 00:20:39;;;;;;;8.52;2.75;;;-0.60;76.30;;;;;;5043853;28;20025;-61
2021/03/20 00:23:06;;;;;;;5.40;2.90;;;-0.70;76.80;;;;;;5062014;28;20029;-56
2021/03/20 00:25:32;;;;;;;5.13;2.40;;;-0.70;76.40;;;;;;5062749;28;20147;-53
2021/03/20 00:27:58;;;;;;;5.60;3.15;;;-0.70;76.10;;;;;;5060724;28;20126;-52
2021/03/20 00:30:25;;;;;;;5.75;2.85;;;-0.90;77.00;;;;;;5066252;28;20040;-50
2021/03/20 00:32:51;;;;;;;5.90;2.80;;;-0.90;77.10;;;;;;5060208;28;20527;-51
2021/03/20 00:35:18;;;;;;;4.03;2.72;;;-0.90;77.20;;;;;;5066652;28;20047;-53
2021/03/20 00:37:44;;;;;;;4.13;2.75;;;-0.70;76.70;;;;;;5045001;28;20033;-54
2021/03/20 00:40:14;;;;;;;6.88;2.90;;;-0.70;76.50;;;;;;5056421;28;20127;-50
2021/03/20 00:42:39;;;;;;;5.28;2.85;;;-0.80;76.60;;;;;;5062763;28;20139;-51
2021/03/20 00:45:08;;;;;;;6.57;2.80;;;-0.80;76.70;;;;;;5043703;28;20124;-50
2021/03/20 00:47:33;;;;;;;5.55;2.90;;;-0.90;77.10;;;;;;5057873;28;20095;-49
2021/03/20 00:49:59;;;;;;;4.03;2.70;;;-0.80;77.20;;;;;;5060894;28;20024;-51
2021/03/20 00:52:24;;;;;;;6.60;2.85;;;-0.70;76.80;;;;;;5061004;28;20028;-53
2021/03/20 00:54:50;;;;;;;4.38;2.92;;;-0.80;76.80;;;;;;5062910;28;20082;-52
2021/03/20 00:57:16;;;;;;;4.65;2.63;;;-0.70;76.50;;;;;;5063940;28;20028;-49
2021/03/20 00:59:41;;;;;;;7.30;2.80;;;-0.70;76.60;;;;;;5068617;28;20051;-50
2021/03/20 01:02:07;;;;;;;7.00;3.00;;;-0.70;76.60;;;;;;5068124;28;20104;-49
2021/03/20 01:04:33;;;;;;;5.38;2.72;;;-0.70;76.50;;;;;;5050338;28;20060;-51
2021/03/20 01:06:58;;;;;;;5.75;2.78;;;-0.70;76.60;;;;;;5054594;28;20036;-49
2021/03/20 01:09:25;;;;;;;8.23;2.88;;;-0.80;76.90;;;;;;5070769;28;20040;-47
2021/03/20 01:11:51;;;;;;;4.88;2.70;;;-0.80;77.20;;;;;;5072011;28;20154;-51
2021/03/20 01:14:17;;;;;;;6.75;2.75;;;-0.80;77.70;;;;;;5071223;28;20056;-51
2021/03/20 01:16:42;;;;;;;6.03;2.67;;;-0.70;77.30;;;;;;5072277;28;20081;-51
2021/03/20 01:19:08;;;;;;;6.38;2.83;;;-0.70;77.20;;;;;;5068872;28;20063;-53
2021/03/20 01:21:34;;;;;;;6.40;2.90;;;-0.80;77.70;;;;;;5052757;28;20502;-48
2021/03/20 01:23:59;;;;;;;3.10;2.53;;;-0.80;77.50;;;;;;5071282;28;20123;-51
2021/03/20 01:26:25;;;;;;;6.15;2.75;;;-0.90;77.50;;;;;;5071385;28;20036;-53
2021/03/20 01:28:50;;;;;;;4.10;2.83;;;-0.80;77.10;;;;;;5058894;28;20115;-52
2021/03/20 01:31:16;;;;;;;6.03;2.80;;;-0.90;77.40;;;;;;5071710;28;20510;-50
2021/03/20 01:33:43;;;;;;;5.90;2.45;;;-0.90;77.30;;;;;;5070225;28;20044;-49
2021/03/20 01:36:09;;;;;;;8.35;2.72;;;-0.80;77.20;;;;;;5069786;28;20063;-52
2021/03/20 01:38:35;;;;;;;4.10;2.60;;;-0.80;77.10;;;;;;5070246;28;20576;-54
2021/03/20 01:41:05;;;;;;;5.40;2.65;;;-0.70;77.50;;;;;;5070760;28;20048;-51
2021/03/20 01:43:32;;;;;;;4.40;2.40;;;-0.80;77.10;;;;;;5071369;28;20060;-51
2021/03/20 01:46:35;;;;;;;4.28;2.53;;;-0.70;77.00;;;;;;5070450;28;20476;-53
2021/03/20 01:49:03;;;;;;;4.55;2.50;;;-0.80;77.60;;;;;;5071201;28;20056;-54
2021/03/20 01:51:29;;;;;;;6.63;2.35;;;-0.90;77.70;;;;;;5069398;28;20083;-52
2021/03/20 01:53:58;;;;;;;5.55;2.90;;;-1.00;77.80;;;;;;5070514;28;20115;-50
2021/03/20 01:56:38;;;;;;;6.18;3.05;;;-1.00;77.50;;;;;;5071486;28;20087;-53
2021/03/20 01:59:05;;;;;;;4.22;2.47;;;-1.00;78.70;;;;;;5070820;28;20056;-50
2021/03/20 02:01:32;;;;;;;4.75;2.50;;;-0.90;77.90;;;;;;5071461;28;20122;-54
2021/03/20 02:03:59;;;;;;;5.40;3.05;;;-1.00;78.00;;;;;;5074614;28;20028;-49
2021/03/20 02:06:27;;;;;;;5.75;2.60;;;-0.90;78.50;;;;;;5075576;28;20048;-51
2021/03/20 02:08:57;;;;;;;5.57;2.40;;;-0.80;77.90;;;;;;5074847;28;20127;-52
2021/03/20 02:11:26;;;;;;;4.68;2.80;;;-0.80;77.70;;;;;;5075062;28;20380;-51
2021/03/20 02:14:04;;;;;;;7.05;2.88;;;-0.90;78.00;;;;;;5074817;28;20115;-50
2021/03/20 02:17:09;;;;;;;4.38;2.63;;;-0.90;77.70;;;;;;5057064;28;20033;-50
2021/03/20 02:20:26;;;;;;;3.72;2.45;;;-0.80;77.90;;;;;;5059625;28;20076;-52
2021/03/20 02:23:00;;;;;;;9.55;4.25;;;-0.80;77.70;;;;;;5023828;28;20079;-53
2021/03/20 02:25:48;;;;;;;4.53;2.85;;;-0.80;77.70;;;;;;5068958;28;20106;-55
2021/03/20 02:28:38;;;;;;;4.65;3.03;;;-0.80;77.70;;;;;;5074397;28;20060;-53
2021/03/20 02:31:25;;;;;;;6.57;2.65;;;-0.80;77.80;;;;;;5075360;28;20430;-53
2021/03/20 02:34:04;;;;;;;4.72;2.85;;;-0.90;78.00;;;;;;5074931;28;20032;-49
2021/03/20 02:36:29;;;;;;;5.38;2.40;;;-0.90;78.50;;;;;;5075597;28;20020;-52
2021/03/20 02:39:01;;;;;;;6.35;2.60;;;-1.00;78.80;;;;;;5074584;28;20567;-53
2021/03/20 02:41:47;;;;;;;6.38;2.67;;;-0.90;78.90;;;;;;5074833;28;20051;-50
2021/03/20 02:44:36;;;;;;;7.72;3.53;;;-1.00;79.20;;;;;;5074648;28;20031;-52
2021/03/20 02:47:06;;;;;;;6.28;2.78;;;-1.00;79.20;;;;;;5074929;28;20058;-53
2021/03/20 02:50:07;;;;;;;7.15;2.90;;;-0.90;78.70;;;;;;5074222;28;20043;-54
2021/03/20 02:52:59;;;;;;;7.78;2.60;;;-1.20;79.00;;;;;;5095391;28;20406;-53
2021/03/20 02:55:30;;;;;;;6.05;3.05;;;-1.10;79.10;;;;;;5070181;28;20654;-51
2021/03/20 02:58:05;;;;;;;6.70;2.65;;;-1.20;79.30;;;;;;5057334;28;20041;-52
2021/03/20 03:00:36;;;;;;;6.68;2.92;;;-1.30;79.60;;;;;;5076972;28;20056;-50
2021/03/20 03:03:03;;;;;;;5.78;2.55;;;-1.30;80.10;;;;;;5057458;28;20037;-53
2021/03/20 03:05:43;;;;;;;5.40;2.70;;;-1.30;79.70;;;;;;5074706;28;20037;-51
2021/03/20 03:08:21;;;;;;;7.25;2.80;;;-1.30;79.80;;;;;;5076764;28;20060;-55
2021/03/20 03:11:22;;;;;;;5.03;2.78;;;-1.20;79.90;;;;;;5072199;28;20107;-52
2021/03/20 03:14:31;;;;;;;5.70;2.83;;;-1.20;80.10;;;;;;5043292;28;20040;-48
2021/03/20 03:17:02;;;;;;;4.97;2.88;;;-1.40;80.20;;;;;;5057784;28;20361;-55
2021/03/20 03:19:31;;;;;;;4.40;2.70;;;-1.20;80.10;;;;;;5075638;28;20112;-56
2021/03/20 03:21:59;;;;;;;5.00;2.88;;;-1.20;80.00;;;;;;5076178;28;20032;-56
2021/03/20 03:24:28;;;;;;;4.80;2.60;;;-1.10;80.10;;;;;;5074747;28;20142;-48
2021/03/20 03:27:04;;;;;;;4.90;2.65;;;-1.00;79.40;;;;;;5074025;28;20032;-48
2021/03/20 03:29:34;;;;;;;6.90;2.92;;;-1.00;79.20;;;;;;5055678;28;20041;-48
2021/03/20 03:32:15;;;;;;;4.90;2.67;;;-1.10;79.40;;;;;;5093933;28;20032;-50
2021/03/20 03:34:55;;;;;;;10.38;4.25;;;-1.20;79.60;;;;;;5074948;28;20388;-52
2021/03/20 03:37:48;;;;;;;6.05;2.78;;;-1.20;80.00;;;;;;5072850;28;20032;-51
2021/03/20 03:40:20;;;;;;;5.22;3.10;;;-1.10;79.30;;;;;;5053118;28;20037;-49
2021/03/20 03:42:50;;;;;;;7.60;2.60;;;-1.00;79.00;;;;;;5073564;28;20530;-49
2021/03/20 03:45:18;;;;;;;5.13;3.00;;;-1.10;79.30;;;;;;5073354;28;20083;-52
2021/03/20 03:47:45;;;;;;;5.72;3.05;;;-1.10;79.70;;;;;;5073144;28;20028;-51
2021/03/20 03:50:19;;;;;;;5.43;3.40;;;-1.00;79.60;;;;;;5073004;28;20035;-52
2021/03/20 03:52:45;;;;;;;5.97;3.25;;;-1.10;79.50;;;;;;5073237;28;20036;-50
2021/03/20 03:55:11;;;;;;;4.80;2.13;;;-1.10;79.60;;;;;;5054262;28;20410;-49
2021/03/20 03:58:10;;;;;;;6.70;2.78;;;-1.10;79.70;;;;;;5073460;28;20045;-53
2021/03/20 04:00:47;;;;;;;9.35;2.83;;;-1.10;79.80;;;;;;5072960;28;20391;-49
2021/03/20 04:03:50;;;;;;;5.72;2.78;;;-1.20;80.20;;;;;;5072819;28;21517;-53
2021/03/20 04:06:19;;;;;;;5.32;2.83;;;-1.20;80.60;;;;;;5072628;28;20029;-50
2021/03/20 04:09:04;;;;;;;4.13;2.80;;;-1.20;80.80;;;;;;5072637;28;20078;-50
2021/03/20 04:12:08;;;;;;;5.72;2.70;;;-1.10;80.30;;;;;;5085507;28;20031;-55
2021/03/20 04:15:07;;;;;;;3.85;3.05;;;-1.00;79.80;;;;;;5069726;28;20170;-55
2021/03/20 04:17:46;;;;;;;5.57;2.55;;;-1.20;80.20;;;;;;5072676;28;20067;-52
2021/03/20 04:20:20;;;;;;;6.55;3.65;;;-1.20;80.60;;;;;;5052807;28;20496;-54
2021/03/20 04:23:07;;;;;;;6.28;2.95;;;-1.10;80.20;;;;;;5071836;28;20048;-56
2021/03/20 04:25:56;;;;;;;6.22;2.63;;;-1.10;80.00;;;;;;5043163;28;20139;-53
2021/03/20 04:28:55;;;;;;;4.78;3.20;;;-1.10;80.20;;;;;;5072171;28;20037;-49
2021/03/20 04:31:30;;;;;;;5.38;3.30;;;-1.00;80.50;;;;;;5070511;28;20032;-52
2021/03/20 04:34:17;;;;;;;7.78;2.95;;;-1.10;80.20;;;;;;5034354;28;20025;-50
2021/03/20 04:36:49;;;;;;;5.55;2.58;;;-0.90;79.90;;;;;;5078449;28;20177;-48
2021/03/20 04:39:18;;;;;;;5.35;2.70;;;-0.90;79.90;;;;;;5072506;28;20104;-49
2021/03/20 04:41:44;;;;;;;4.78;2.90;;;-0.90;79.90;;;;;;5071819;28;20515;-47
2021/03/20 04:44:11;;;;;;;4.05;2.60;;;-1.00;80.10;;;;;;5072245;28;20041;-52
2021/03/20 04:46:38;;;;;;;5.97;2.85;;;-1.00;80.40;;;;;;5072757;28;20396;-49
2021/03/20 04:49:40;;;;;;;6.13;2.85;;;-0.90;80.30;;;;;;5072129;28;20033;-52
2021/03/20 04:52:19;;;;;;;6.43;2.70;;;-1.00;80.40;;;;;;5072735;28;20029;-49
2021/03/20 04:54:45;;;;;;;5.93;3.00;;;-1.00;80.10;;;;;;5072567;28;20210;-49
2021/03/20 04:57:47;;;;;;;7.55;2.75;;;-1.00;80.00;;;;;;5072115;28;20508;-52
2021/03/20 05:00:18;;;;;;;4.78;2.88;;;-1.00;80.30;;;;;;5072481;28;20419;-50
2021/03/20 05:03:04;;;;;;;3.67;2.60;;;-0.90;80.40;;;;;;5072056;28;20047;-50
2021/03/20 05:05:42;;;;;;;4.65;3.45;;;-0.90;80.80;;;;;;5071949;28;20033;-49
2021/03/20 05:08:11;;;;;;;6.55;3.03;;;-0.90;80.30;;;;;;5071905;28;20032;-54
2021/03/20 05:10:44;;;;;;;5.03;2.60;;;-0.90;80.50;;;;;;5072134;28;20052;-52
2021/03/20 05:13:19;;;;;;;9.50;3.17;;;-0.90;80.50;;;;;;5072351;28;20058;-52
2021/03/20 05:15:45;;;;;;;5.95;2.80;;;-0.90;80.80;;;;;;5071948;28;20503;-52
2021/03/20 05:18:11;;;;;;;5.72;3.05;;;-1.00;81.10;;;;;;5084678;28;20040;-49
2021/03/20 05:20:36;;;;;;;6.93;2.97;;;-1.00;81.20;;;;;;5071611;28;20091;-53
2021/03/20 05:23:02;;;;;;;3.78;2.65;;;-0.90;81.10;;;;;;5071962;28;20149;-49
2021/03/20 05:25:28;;;;;;;6.47;3.88;;;-1.10;82.30;;;;;;5058203;28;20037;-51
2021/03/20 05:27:54;;;;;;;5.07;2.85;;;-0.90;81.10;;;;;;5071114;28;20033;-51
2021/03/20 05:30:20;;;;;;;7.40;2.80;;;-0.90;81.10;;;;;;5071810;28;20056;-49
2021/03/20 05:32:46;;;;;;;5.45;2.40;;;-1.00;81.70;;;;;;5071466;28;20060;-52
2021/03/20 05:35:25;;;;;;;5.95;2.78;;;-0.90;81.40;;;;;;5053205;28;20459;-53
2021/03/20 05:37:51;;;;;;;7.20;2.80;;;-0.80;80.60;;;;;;5053456;28;20041;-50
2021/03/20 05:40:27;;;;;;;7.93;3.00;;;-0.80;80.80;;;;;;5075502;28;20460;-53
2021/03/20 05:42:55;;;;;;;5.40;2.83;;;-0.70;80.30;;;;;;5075693;28;20094;-49
2021/03/20 05:45:26;;;;;;;6.97;3.30;;;-0.70;80.00;;;;;;5058133;28;20032;-53
2021/03/20 05:48:17;;;;;;;3.25;2.55;;;-0.80;80.00;;;;;;5075446;28;20106;-51
2021/03/20 05:51:04;;;;;;;6.93;3.47;;;-0.60;80.00;;;;;;5057775;28;20029;-54
2021/03/20 05:54:04;;;;;;;4.43;3.28;;;-0.50;80.00;;;;;;5056157;28;20039;-51
2021/03/20 05:56:45;;;;;;;5.82;2.28;;;-0.60;80.00;;;;;;5060770;28;20027;-49
2021/03/20 05:59:25;;;;;;;10.05;3.20;;;-0.60;80.20;;;;;;5075322;28;20380;-49
2021/03/20 06:02:16;;;;;;;4.43;3.00;;;-0.60;80.30;;;;;;5075996;28;20111;-49
2021/03/20 06:04:44;;;;;;;7.75;3.28;;;-0.60;80.30;;;;;;5076219;28;20024;-54
2021/03/20 06:07:18;;;;;;;5.38;2.60;;;-0.50;79.80;;;;;;5074052;28;20032;-49
2021/03/20 06:10:02;;;;;;;5.20;3.08;;;-0.50;80.10;;;;;;5075725;28;20031;-51
2021/03/20 06:12:42;;;;;;;8.07;3.45;;;-0.50;79.50;;;;;;5076257;28;20036;-49
2021/03/20 06:15:13;;;;;;;7.43;2.90;;;-0.50;79.60;;;;;;5059299;28;20033;-48
2021/03/20 06:17:57;;;;;;;6.45;2.90;;;-0.60;79.80;;;;;;5075455;28;20032;-55
2021/03/20 06:20:38;;;;;;;8.05;3.08;;;-0.80;80.60;;;;;;5055437;28;20025;-50
2021/03/20 06:23:16;;;;;;;4.80;3.22;;;-0.60;80.50;;;;;;5053534;28;20108;-48
2021/03/20 06:25:47;;;;;;;7.13;3.03;;;-0.80;80.80;;;;;;5079269;28;20037;-56
2021/03/20 06:28:16;;;;;;;7.75;3.70;;;-0.70;80.70;;;;;;5079516;28;20055;-55
2021/03/20 06:30:45;;;;;;;6.28;3.00;;;-0.60;80.50;;;;;;5101074;28;20056;-50
2021/03/20 06:33:21;;;;;;;6.63;2.88;;;-0.60;80.70;;;;;;5063263;28;20541;-53
2021/03/20 06:35:49;;;;;;;4.93;3.00;;;-0.60;80.40;;;;;;5058542;28;20051;-53
2021/03/20 06:38:39;;;;;;;5.97;3.00;;;-0.50;80.80;;;;;;5074022;28;20079;-51
2021/03/20 06:41:14;;;;;;;6.68;2.78;;;-0.50;80.10;;;;;;5058584;28;20033;-55
2021/03/20 06:43:46;;;;;;;9.70;3.80;;;-0.50;80.30;;;;;;5057948;28;20499;-55
2021/03/20 06:46:15;;;;;;;7.40;3.65;;;-0.40;79.80;;;;;;5075313;28;20040;-50
2021/03/20 06:48:42;;;;;;;5.90;3.25;;;-0.40;80.50;;;;;;5073480;28;20032;-54
2021/03/20 06:51:08;;;;;;;6.28;3.30;;;-0.60;81.10;;;;;;5074592;28;20064;-55
2021/03/20 06:53:44;;;;;;;5.63;3.10;;;-0.60;81.90;;;;;;5074871;28;20033;-52
2021/03/20 06:56:14;;;;;;;6.70;3.20;;;-0.60;81.80;;;;;;5074841;28;20032;-53
2021/03/20 06:58:41;;;;;;;7.07;3.47;;;-0.50;81.00;;;;;;5056499;28;20033;-52
2021/03/20 07:01:19;;;;;;;10.68;3.72;;;-0.40;80.60;;;;;;5074529;28;20579;-56
2021/03/20 07:04:28;;;;;;;7.25;3.13;;;-0.20;80.20;;;;;;5056361;28;20043;-53
2021/03/20 07:07:19;;;;;;;9.50;3.65;;;-0.30;80.90;;;;;;5074280;28;20028;-50
2021/03/20 07:09:49;;;;;;;8.98;3.60;;;-0.40;80.80;;;;;;5022630;28;20048;-54
2021/03/20 07:12:18;;;;;;;8.55;3.90;;;-0.30;80.70;;;;;;5057766;28;20020;-49
2021/03/20 07:14:48;;;;;;;8.32;3.72;;;-0.50;81.40;;;;;;5074133;28;20033;-53
2021/03/20 07:17:17;;;;;;;5.80;3.83;;;-0.40;82.10;;;;;;5055944;28;20511;-53
2021/03/20 07:19:54;;;;;;;4.60;3.50;;;-0.20;81.90;;;;;;5073919;28;20507;-51
2021/03/20 07:22:34;;;;;;;9.45;3.67;;;-0.10;81.00;;;;;;5074352;28;20036;-51
2021/03/20 07:25:15;;;;;;;8.88;3.80;;;-0.10;80.00;;;;;;5049721;28;20024;-53
2021/03/20 07:27:41;;;;;;;7.30;3.72;;;0.00;80.50;;;;;;5072691;28;20071;-51
2021/03/20 07:30:27;;;;;;;6.43;3.90;;;0.00;80.00;;;;;;5055772;28;20498;-51
2021/03/20 07:32:52;;;;;;;7.22;3.58;;;0.00;80.10;;;;;;5053541;28;20541;-51
2021/03/20 07:35:21;;;;;;;6.07;3.75;;;0.10;80.00;;;;;;5039726;28;20024;-56
2021/03/20 07:37:49;;;;;;;7.18;3.90;;;0.10;79.70;;;;;;5056594;28;20028;-55
2021/03/20 07:40:24;;;;;;;7.57;3.92;;;0.00;79.30;;;;;;5056296;28;20596;-55
2021/03/20 07:42:52;;;;;;;6.85;3.78;;;-0.10;79.60;;;;;;5056226;28;20097;-53
2021/03/20 07:45:17;;;;;;;7.10;3.72;;;-0.30;80.20;;;;;;5073246;28;20063;-53
2021/03/20 07:47:59;;;;;;;5.38;3.65;;;-0.10;80.40;;;;;;5073994;28;20056;-53
2021/03/20 07:50:31;;;;;;;7.68;4.53;;;0.20;79.90;;;;;;5055378;28;20534;-52
2021/03/20 07:53:10;;;;;;;8.20;4.55;;;0.30;79.40;;;;;;5055961;28;20162;-56
2021/03/20 07:56:14;;;;;;;7.72;3.80;;;0.30;78.80;;;;;;5055384;28;20547;-58
2021/03/20 07:58:46;;;;;;;7.38;3.90;;;0.20;78.90;;;;;;5070286;28;20051;-53
2021/03/20 08:01:24;;;;;;;7.47;3.85;;;0.40;78.30;;;;;;5073223;28;20054;-54
2021/03/20 08:04:05;;;;;;;11.05;5.10;;;0.40;78.60;;;;;;5056212;28;20050;-54
2021/03/20 08:06:44;;;;;;;6.68;4.38;;;0.50;77.90;;;;;;5059371;28;20029;-49
2021/03/20 08:09:27;;;;;;;9.95;4.13;;;0.60;77.50;;;;;;5055334;28;20040;-50
2021/03/20 08:11:58;;;;;;;7.68;3.88;;;0.50;76.70;;;;;;5072882;28;20044;-53
2021/03/20 08:15:00;;;;;;;5.82;3.80;;;0.70;75.90;;;;;;5054919;28;20495;-52
2021/03/20 08:17:26;;;;;;;6.00;3.70;;;0.90;75.10;;;;;;5039509;28;20045;-51
2021/03/20 08:19:52;;;;;;;8.25;4.07;;;0.90;73.90;;;;;;5069816;28;20464;-52
2021/03/20 08:22:39;;;;;;;6.88;5.05;;;1.00;73.80;;;;;;5072456;28;20048;-53
2021/03/20 08:25:26;;;;;;;10.45;6.43;;;0.70;74.70;;;;;;5047764;28;20472;-49
2021/03/20 08:28:14;;;;;;;12.02;6.50;;;0.50;76.10;;;;;;5072221;28;20036;-52
2021/03/20 08:30:58;;;;;;;12.70;8.52;;;0.60;76.00;;;;;;5070505;28;20079;-53
2021/03/20 08:33:29;;;;;;;14.03;9.87;;;1.00;75.10;;;;;;5051964;28;20032;-56
2021/03/20 08:36:25;;;;;;;16.17;9.00;;;1.20;74.20;;;;;;5042475;28;20317;-54
2021/03/20 08:39:16;;;;;;;13.60;8.32;;;1.10;75.10;;;;;;5072439;28;20037;-50
2021/03/20 08:41:50;;;;;;;15.10;10.10;;;1.50;72.90;;;;;;5048423;28;20029;-52
2021/03/20 08:44:25;;;;;;;14.68;8.05;;;1.40;72.90;;;;;;5062720;28;20628;-56
2021/03/20 08:47:00;;;;;;;11.43;7.50;;;1.40;73.00;;;;;;5061152;28;20070;-54
2021/03/20 08:49:26;;;;;;;;;;;1.60;72.90;;;;;;5063568;28;20103;-56
2021/03/20 08:52:05;;;;;;;11.15;6.47;;;1.60;71.10;;;;;;5070692;28;19943;-53
2021/03/20 08:54:49;;;;;;;7.55;5.35;;;1.70;70.80;;;;;;5072412;28;20029;-52
2021/03/20 08:58:00;;;;;;;10.75;4.97;;;1.80;71.20;;;;;;5072013;28;20029;-53
2021/03/20 09:00:31;;;;;;;7.13;4.03;;;1.80;70.80;;;;;;5067451;28;20496;-54
2021/03/20 09:03:03;;;;;;;9.07;4.60;;;2.00;70.80;;;;;;5074337;28;20056;-54
2021/03/20 09:05:39;;;;;;;8.05;4.10;;;2.00;70.40;;;;;;5071917;28;20045;-55
2021/03/20 09:08:16;;;;;;;7.63;4.43;;;2.00;69.40;;;;;;5072062;28;20033;-55
2021/03/20 09:10:52;;;;;;;5.07;3.10;;;2.50;68.00;;;;;;5071776;28;20021;-53
2021/03/20 09:13:58;;;;;;;5.03;3.25;;;2.40;64.30;;;;;;5053333;28;20036;-50
2021/03/20 09:16:39;;;;;;;7.53;3.65;;;2.20;64.70;;;;;;5043605;28;20643;-49
2021/03/20 09:19:08;;;;;;;6.93;3.38;;;2.30;64.30;;;;;;5056296;28;20032;-53
2021/03/20 09:21:37;;;;;;;5.45;3.50;;;2.50;64.30;;;;;;5062945;28;20119;-54
2021/03/20 09:24:13;;;;;;;8.02;3.40;;;2.50;64.60;;;;;;5062021;28;20025;-53
2021/03/20 09:26:49;;;;;;;6.75;3.30;;;2.20;64.90;;;;;;5067225;28;20043;-51
2021/03/20 09:29:26;;;;;;;5.78;3.53;;;2.50;63.70;;;;;;5062585;28;20522;-51
2021/03/20 09:31:55;;;;;;;6.97;4.57;;;2.70;63.40;;;;;;5064313;28;20135;-48
2021/03/20 09:34:30;;;;;;;7.22;3.53;;;2.90;63.00;;;;;;5063010;28;20032;-52
2021/03/20 09:36:56;;;;;;;;;;;3.00;61.80;;;;;;5064544;28;20123;-54
2021/03/20 09:39:43;;;;;;;6.28;3.17;;;2.80;60.00;;;;;;5045328;28;20049;-53
2021/03/20 09:42:26;;;;;;;6.43;3.58;;;2.80;61.50;;;;;;5081187;28;20503;-54
2021/03/20 09:45:10;;;;;;;8.18;3.78;;;2.80;59.30;;;;;;5079856;28;20047;-57
2021/03/20 09:47:55;;;;;;;6.95;3.38;;;2.60;60.00;;;;;;5044305;28;20068;-57
2021/03/20 09:50:20;;;;;;;4.78;3.20;;;2.90;59.90;;;;;;5048689;28;20049;-56
2021/03/20 09:53:08;;;;;;;4.78;2.95;;;2.80;60.10;;;;;;5065293;28;20044;-59
2021/03/20 09:55:50;;;;;;;6.57;3.40;;;2.80;59.00;;;;;;5060097;28;20025;-54
2021/03/20 09:58:19;;;;;;;4.85;3.28;;;2.80;60.50;;;;;;5035923;28;20041;-52
2021/03/20 10:00:51;;;;;;;6.47;3.58;;;3.00;60.60;;;;;;5067301;28;20059;-53
2021/03/20 10:03:38;;;;;;;7.20;3.35;;;3.30;60.10;;;;;;5068412;28;20040;-53
2021/03/20 10:06:19;;;;;;;4.85;3.38;;;3.00;60.40;;;;;;5051639;28;20041;-51
2021/03/20 10:08:47;;;;;;;5.35;3.15;;;3.30;59.00;;;;;;5056210;28;20522;-54
2021/03/20 10:11:33;;;;;;;7.70;3.67;;;3.50;59.20;;;;;;5080364;28;20436;-55
2021/03/20 10:13:59;;;;;;;7.30;3.97;;;3.50;57.90;;;;;;5051161;28;20373;-53
2021/03/20 10:16:30;;;;;;;5.25;2.90;;;3.40;58.20;;;;;;5039330;28;20143;-51
2021/03/20 10:19:12;;;;;;;7.10;3.50;;;3.20;58.20;;;;;;5052231;28;20122;-51
2021/03/20 10:21:39;;;;;;;7.10;3.22;;;2.80;59.30;;;;;;5064188;28;20038;-54
2021/03/20 10:24:26;;;;;;;7.43;3.28;;;2.80;60.50;;;;;;5066339;28;20033;-53
2021/03/20 10:27:02;;;;;;;10.85;5.10;;;2.90;59.90;;;;;;5063843;28;20045;-53
2021/03/20 10:29:38;;;;;;;7.95;4.15;;;3.00;59.60;;;;;;5066241;28;20045;-50
2021/03/20 10:32:17;;;;;;;7.25;3.28;;;3.30;58.80;;;;;;5065361;28;20032;-54
2021/03/20 10:34:46;;;;;;;5.25;3.00;;;3.60;58.10;;;;;;5068776;28;20111;-55
2021/03/20 10:37:13;;;;;;;6.22;3.22;;;3.20;59.00;;;;;;5069103;28;20079;-55
2021/03/20 10:39:43;;;;;;;4.70;2.60;;;2.60;60.60;;;;;;5072773;28;20537;-52
2021/03/20 10:42:28;;;;;;;11.20;5.28;;;2.50;60.90;;;;;;5074723;28;20114;-51
2021/03/20 10:44:59;;;;;;;5.65;3.20;;;2.60;60.30;;;;;;5069264;28;20029;-53
2021/03/20 10:47:33;;;;;;;6.93;3.50;;;2.60;59.60;;;;;;5055108;28;20029;-51
2021/03/20 10:50:15;;;;;;;7.43;3.33;;;2.80;58.80;;;;;;5065519;28;20033;-54
2021/03/20 10:52:42;;;;;;;4.90;2.78;;;3.10;57.90;;;;;;5072209;28;20064;-53
2021/03/20 10:55:37;;;;;;;4.68;3.10;;;3.00;57.60;;;;;;5064842;28;20095;-52
2021/03/20 10:58:06;;;;;;;4.77;3.00;;;3.20;56.30;;;;;;5054383;28;20091;-52
2021/03/20 11:00:44;;;;;;;4.45;2.97;;;3.30;55.40;;;;;;5069249;28;20329;-58
2021/03/20 11:03:14;;;;;;;6.85;3.05;;;3.50;59.00;;;;;;5071238;28;20495;-58
2021/03/20 11:05:42;;;;;;;4.50;2.42;;;3.70;55.10;;;;;;5051719;28;20363;-58
2021/03/20 11:08:19;;;;;;;3.95;3.00;;;3.70;53.90;;;;;;5068054;28;20040;-57
2021/03/20 11:10:48;;;;;;;6.28;2.97;;;3.90;54.90;;;;;;5067788;28;20108;-58
2021/03/20 11:13:17;;;;;;;5.15;2.55;;;3.90;53.40;;;;;;5062679;28;20036;-57
2021/03/20 11:15:45;;;;;;;5.28;3.72;;;4.00;50.80;;;;;;5068250;28;20070;-58
2021/03/20 11:18:26;;;;;;;3.95;2.92;;;4.00;50.20;;;;;;5073535;28;20147;-56
2021/03/20 11:20:51;;;;;;;5.00;2.50;;;3.90;50.00;;;;;;5072245;28;20111;-55
2021/03/20 11:23:36;;;;;;;5.88;2.92;;;3.90;49.10;;;;;;5065566;28;20120;-58
2021/03/20 11:26:33;;;;;;;13.68;4.15;;;4.00;49.30;;;;;;5047759;28;20032;-55
2021/03/20 11:29:01;;;;;;;4.28;3.00;;;4.10;50.00;;;;;;5067659;28;20400;-57
2021/03/20 11:31:34;;;;;;;6.97;2.80;;;4.10;51.80;;;;;;5066005;28;20040;-56
2021/03/20 11:34:00;;;;;;;4.28;2.67;;;3.90;51.80;;;;;;5062348;28;20081;-55
2021/03/20 11:36:28;;;;;;;3.88;2.70;;;4.00;52.30;;;;;;5062124;28;20257;-55
2021/03/20 11:38:55;;;;;;;4.00;2.78;;;4.00;52.20;;;;;;5053789;28;20037;-56
2021/03/20 11:41:38;;;;;;;5.65;3.33;;;3.80;53.00;;;;;;5073875;28;20109;-58
2021/03/20 11:44:12;;;;;;;4.07;2.72;;;3.90;53.10;;;;;;5074337;28;20479;-57
2021/03/20 11:46:46;;;;;;;;;;;4.30;51.80;;;;;;5075098;28;20040;-57
2021/03/20 11:49:42;;;;;;;4.90;2.63;;;4.40;50.20;;;;;;5057965;28;20376;-56
2021/03/20 11:52:23;;;;;;;4.18;2.90;;;4.60;49.50;;;;;;5054524;28;20045;-58
2021/03/20 11:55:08;;;;;;;4.20;2.53;;;4.60;49.10;;;;;;5071554;28;20032;-58
2021/03/20 11:57:39;;;;;;;7.80;3.17;;;4.30;50.50;;;;;;5073664;28;20039;-58
2021/03/20 12:00:29;;;;;;;4.15;2.72;;;4.10;51.70;;;;;;5053334;28;20033;-56
2021/03/20 12:02:55;;;;;;;5.30;2.90;;;4.00;51.90;;;;;;5045816;28;20131;-56
2021/03/20 12:05:36;;;;;;;5.45;3.17;;;3.70;52.00;;;;;;5077261;28;20538;-59
2021/03/20 12:08:11;;;;;;;4.60;2.67;;;3.80;51.00;;;;;;5092965;28;20090;-58
2021/03/20 12:10:37;;;;;;;3.47;2.70;;;3.70;50.00;;;;;;5086607;28;20503;-56
2021/03/20 12:13:02;;;;;;;7.18;3.63;;;3.30;50.10;;;;;;5055298;28;20025;-52
2021/03/20 12:15:33;;;;;;;7.30;3.00;;;3.50;50.30;;;;;;5073080;28;20047;-56
2021/03/20 12:18:01;;;;;;;5.75;3.45;;;3.60;51.60;;;;;;5073457;28;20107;-55
2021/03/20 12:20:43;;;;;;;4.32;2.88;;;3.70;52.60;;;;;;5073005;28;20434;-54
2021/03/20 12:23:17;;;;;;;5.30;2.85;;;3.50;53.40;;;;;;5056453;28;20070;-55
2021/03/20 12:25:52;;;;;;;5.28;3.00;;;3.90;52.40;;;;;;5073617;28;20040;-53
2021/03/20 12:28:33;;;;;;;4.72;2.97;;;4.00;51.10;;;;;;5073285;28;20035;-58
2021/03/20 12:31:18;;;;;;;4.68;2.63;;;3.80;50.90;;;;;;5041250;28;20129;-55
2021/03/20 12:33:55;;;;;;;5.75;2.97;;;4.00;50.40;;;;;;5073547;28;20078;-59
2021/03/20 12:36:43;;;;;;;3.67;2.75;;;4.30;49.50;;;;;;5072572;28;20032;-56
2021/03/20 12:39:36;;;;;;;3.38;2.72;;;4.00;48.90;;;;;;5054659;28;20090;-59
2021/03/20 12:42:02;;;;;;;5.15;3.53;;;3.90;49.50;;;;;;5038046;28;20045;-57
2021/03/20 12:44:40;;;;;;;3.80;2.65;;;4.00;48.20;;;;;;5054373;28;20036;-57
2021/03/20 12:47:06;;;;;;;7.50;2.92;;;4.00;47.90;;;;;;5054586;28;20040;-57
2021/03/20 12:49:35;;;;;;;10.60;3.10;;;4.30;47.90;;;;;;5070189;28;20033;-58
2021/03/20 12:52:03;;;;;;;4.80;2.80;;;4.00;48.90;;;;;;5037393;28;20054;-57
2021/03/20 12:54:33;;;;;;;4.20;2.50;;;3.70;48.40;;;;;;5072374;28;20021;-57
2021/03/20 12:56:59;;;;;;;3.28;2.50;;;3.60;48.60;;;;;;5055042;28;20025;-59
2021/03/20 12:59:26;;;;;;;4.40;2.90;;;3.70;48.90;;;;;;5072530;28;20373;-59
2021/03/20 13:01:52;;;;;;;6.15;3.22;;;4.10;49.00;;;;;;5072623;28;20047;-58
2021/03/20 13:04:19;;;;;;;5.15;2.95;;;4.30;47.30;;;;;;5061839;28;20531;-57
2021/03/20 13:06:45;;;;;;;3.92;2.80;;;4.50;46.00;;;;;;5063750;28;20492;-56
2021/03/20 13:09:12;;;;;;;4.82;3.42;;;4.40;47.50;;;;;;5071887;28;20082;-59
2021/03/20 13:11:38;;;;;;;4.38;2.88;;;4.20;47.50;;;;;;5071971;28;20090;-56
2021/03/20 13:14:05;;;;;;;5.18;3.47;;;4.10;48.50;;;;;;5072232;28;20021;-58
2021/03/20 13:16:31;;;;;;;5.88;2.72;;;3.90;49.50;;;;;;5072076;28;20483;-58
2021/03/20 13:18:57;;;;;;;7.15;3.22;;;3.70;50.90;;;;;;5036745;28;20460;-58
2021/03/20 13:21:23;;;;;;;6.47;2.63;;;3.80;50.40;;;;;;5071937;28;20879;-57
2021/03/20 13:23:49;;;;;;;5.97;2.90;;;4.00;50.10;;;;;;5071804;28;20487;-57
2021/03/20 13:26:15;;;;;;;4.43;2.65;;;4.00;50.10;;;;;;5071533;28;20037;-61
2021/03/20 13:28:41;;;;;;;6.07;3.00;;;3.90;48.70;;;;;;5073986;28;20115;-57
2021/03/20 13:31:06;;;;;;;6.80;3.67;;;3.60;49.40;;;;;;5082814;28;20162;-57